Weather at Lombillo Airport [CLOSED]

Public forecast

Using degrees Celsius for public forecast. Weather courtesy of forecast.io.

Closest aviation weather report (METAR) to Lombillo Airport

Closest report is Ignacio Agramonte International Airport, 21.3 nm (39.5 km) S.

2024/04/16 16:50 (retrieved 46 minutes ago)

MUCM 161650Z 02017KT 9000 SCT020 29/21 Q1016

Closest aviation forecast (TAF) to Lombillo Airport

Closest forecast is Ignacio Agramonte International Airport, 21.3 nm (39.5 km) S.

2024/04/16 12:07 (retrieved 5 hours ago)

TAF MUCM 161100Z 1612/1712 02014KT 9000 SCT020 BECMG 1701/1703 03009KT